Parma Airport LIMP

Flugplatz Daten

Name: Parma Airport

Ident: LIMP

Lat: 44,82450104

Long: 10,29640007

Platzhöhe: 161 ft

IataCode: PMF

City: Parma

Metar

2022/08/13 16:50
LIMP 131650Z 13008KT CAVOK 29/10 Q1012

Taf

2022/08/13 12:00
TAF LIMP 131100Z 1312/1412 VRB05KT CAVOK
Gewünschte Webcam nicht vorhanden? Dann fügen Sie eine hinzu. Sie wird dann so schnell wie möglich freigeschaltet
Url: Title: